METAR Data

Data at: 1213 UTC 21 Apr 2021

METAR for:KGNR (Greenville Muni, ME, US)
Text:KGNR 211156Z AUTO 14003KT 01/M01 A2982 RMK AO1 SLP111 P0023 60029 70029 T00061011 10033 20006 50003
Temperature: 0.6°C ( 33°F)
Dewpoint: -1.1°C ( 30°F) [RH = 88%]
Pressure (altimeter):29.82 inches Hg (1009.9 mb) [Sea level pressure: 1011.1 mb]
Winds:from the SE (140 degrees) at 3 MPH (3 knots; 1.5 m/s)
QC Flag:automated observation with no human augmentation